Time;durP1;ratioP1;P1;durP2;ratioP2;P2;SDS_P1;SDS_P2;PMS_P1;PMS_P2;Temp;Humidity;BMP_temperature;BMP_pressure;BME280_temperature;BME280_humidity;BME280_pressure;Samples;Min_cycle;Max_cycle;Signal;HPM_P1;HPM_P2
2022/09/15 00:00:48;;;;;;;;;;;;;;;;;;5147583;27;20069;-67
2022/09/15 00:03:14;;;;;;;15.77;5.95;;;;;;;;;;5152891;27;20065;-67
2022/09/15 00:05:40;;;;;;;14.68;5.80;;;;;;;;;;5153445;27;20073;-68
2022/09/15 00:08:06;;;;;;;;;;;;;;;;;;5125995;27;20079;-69
2022/09/15 00:10:32;;;;;;;17.02;5.60;;;;;;;;;;5133209;27;20362;-67
2022/09/15 00:12:59;;;;;;;13.63;5.47;;;;;;;;;;5147056;27;20047;-66
2022/09/15 00:15:25;;;;;;;13.35;5.90;;;;;;;;;;5141182;27;20126;-67
2022/09/15 00:17:52;;;;;;;12.27;5.07;;;;;;;;;;5131917;27;20082;-66
2022/09/15 00:20:19;;;;;;;14.95;4.80;;;;;;;;;;5132265;27;20043;-66
2022/09/15 00:22:46;;;;;;;12.75;5.07;;;;;;;;;;5139629;27;20143;-67
2022/09/15 00:25:12;;;;;;;12.48;5.05;;;;;;;;;;5132993;27;20462;-68
2022/09/15 00:27:39;;;;;;;17.73;4.80;;;;;;;;;;5152743;27;20068;-67
2022/09/15 00:30:05;;;;;;;;;;;;;;;;;;5152574;27;20078;-66
2022/09/15 00:32:31;;;;;;;11.25;4.43;;;;;;;;;;5151442;27;19919;-67
2022/09/15 00:34:57;;;;;;;14.07;4.07;;;;;;;;;;5151018;27;20129;-67
2022/09/15 00:37:23;;;;;;;14.18;4.13;;;;;;;;;;5133794;27;20053;-67
2022/09/15 00:39:49;;;;;;;13.02;4.28;;;;;;;;;;5152097;27;20062;-66
2022/09/15 00:42:16;;;;;;;14.40;3.97;;;;;;;;;;5152459;27;20082;-68
2022/09/15 00:44:45;;;;;;;14.10;4.10;;;;;;;;;;5150362;27;20039;-67
2022/09/15 00:47:11;;;;;;;12.63;3.53;;;;;;;;;;5137209;27;20122;-67
2022/09/15 00:49:39;;;;;;;13.70;3.90;;;;;;;;;;5131794;27;20104;-66
2022/09/15 00:52:10;;;;;;;14.05;3.60;;;;;;;;;;5128020;27;20069;-67
2022/09/15 00:54:48;;;;;;;12.82;2.80;;;;;;;;;;5152153;27;20376;-66
2022/09/15 00:57:17;;;;;;;10.52;3.13;;;;;;;;;;5141648;27;20051;-66
2022/09/15 00:59:43;;;;;;;11.90;3.10;;;;;;;;;;5150350;27;20091;-66
2022/09/15 01:02:09;;;;;;;9.77;2.42;;;;;;;;;;5131480;27;20198;-67
2022/09/15 01:04:36;;;;;;;12.27;3.00;;;;;;;;;;5150849;27;20047;-67
2022/09/15 01:07:03;;;;;;;13.73;3.00;;;;;;;;;;5149468;27;20401;-67
2022/09/15 01:09:33;;;;;;;12.75;2.90;;;;;;;;;;5151328;27;20046;-68
2022/09/15 01:11:59;;;;;;;12.65;3.17;;;;;;;;;;5150130;27;20045;-66
2022/09/15 01:14:25;;;;;;;13.43;2.75;;;;;;;;;;5151126;27;20050;-66
2022/09/15 01:17:00;;;;;;;10.27;2.25;;;;;;;;;;5149312;27;20050;-67
2022/09/15 01:19:36;;;;;;;11.88;2.50;;;;;;;;;;5150066;27;20099;-68
2022/09/15 01:22:16;;;;;;;12.15;2.50;;;;;;;;;;5147737;27;20124;-67
2022/09/15 01:24:45;;;;;;;9.10;2.65;;;;;;;;;;5130972;27;20055;-66
2022/09/15 01:27:34;;;;;;;9.60;2.60;;;;;;;;;;5129924;27;20054;-67
2022/09/15 01:30:03;;;;;;;10.70;2.50;;;;;;;;;;5117958;27;20600;-67
2022/09/15 01:35:22;;;;;;;14.82;2.35;;;;;;;;;;5150800;27;20086;-66
2022/09/15 01:38:08;;;;;;;12.68;2.33;;;;;;;;;;5151748;27;20061;-67
2022/09/15 01:40:41;;;;;;;15.15;2.42;;;;;;;;;;5149045;27;20428;-66
2022/09/15 01:43:09;;;;;;;11.35;2.20;;;;;;;;;;5126068;27;20054;-66
2022/09/15 01:45:37;;;;;;;10.52;2.40;;;;;;;;;;5111732;27;20127;-67
2022/09/15 01:48:04;;;;;;;14.10;2.55;;;;;;;;;;5111390;27;20108;-67
2022/09/15 01:50:36;;;;;;;12.00;2.72;;;;;;;;;;5095294;27;20046;-66
2022/09/15 01:53:05;;;;;;;13.05;2.80;;;;;;;;;;5134004;27;20043;-67
2022/09/15 01:55:42;;;;;;;13.48;2.83;;;;;;;;;;5112279;27;20066;-66
2022/09/15 01:58:08;;;;;;;11.20;2.83;;;;;;;;;;5113682;27;20078;-67
2022/09/15 02:00:41;;;;;;;17.52;2.90;;;;;;;;;;5147362;27;20039;-67
2022/09/15 02:03:20;;;;;;;10.95;2.22;;;;;;;;;;5150275;27;20058;-66
2022/09/15 02:05:50;;;;;;;10.55;2.42;;;;;;;;;;5132473;27;20147;-69
2022/09/15 02:08:23;;;;;;;12.13;2.40;;;;;;;;;;5129307;27;20039;-70
2022/09/15 02:10:54;;;;;;;15.23;3.33;;;;;;;;;;5132723;27;20104;-66
2022/09/15 02:13:36;;;;;;;14.23;2.53;;;;;;;;;;5130110;27;20073;-70
2022/09/15 02:16:03;;;;;;;15.27;3.30;;;;;;;;;;5116333;27;20126;-68
2022/09/15 02:18:38;;;;;;;13.05;3.28;;;;;;;;;;5129778;27;20142;-66
2022/09/15 02:21:08;;;;;;;12.73;2.70;;;;;;;;;;5140695;27;20103;-66
2022/09/15 02:23:37;;;;;;;14.00;2.70;;;;;;;;;;5149947;27;20146;-69
2022/09/15 02:26:09;;;;;;;12.73;2.70;;;;;;;;;;5139398;27;20050;-66
2022/09/15 02:28:37;;;;;;;12.43;2.70;;;;;;;;;;5129580;27;20061;-65
2022/09/15 02:31:05;;;;;;;11.80;2.45;;;;;;;;;;5139125;27;20047;-66
2022/09/15 02:33:33;;;;;;;12.13;2.75;;;;;;;;;;5134160;27;20057;-75
2022/09/15 02:35:59;;;;;;;16.50;2.58;;;;;;;;;;5146292;27;20124;-67
2022/09/15 02:38:28;;;;;;;15.98;2.55;;;;;;;;;;5128836;27;20191;-68
2022/09/15 02:40:55;;;;;;;15.35;2.35;;;;;;;;;;5135162;27;20108;-67
2022/09/15 02:43:22;;;;;;;10.75;2.63;;;;;;;;;;5149727;27;20043;-66
2022/09/15 02:45:48;;;;;;;11.60;2.17;;;;;;;;;;5148852;27;20043;-67
2022/09/15 02:48:14;;;;;;;;;;;;;;;;;;5111257;28;20055;-66
2022/09/15 02:50:40;;;;;;;14.40;2.58;;;;;;;;;;5132396;27;19937;-67
2022/09/15 02:53:07;;;;;;;9.32;2.28;;;;;;;;;;5149406;27;20097;-66
2022/09/15 02:55:33;;;;;;;12.57;2.72;;;;;;;;;;5150057;27;20090;-66
2022/09/15 02:58:00;;;;;;;12.48;3.13;;;;;;;;;;5148319;27;20046;-66
2022/09/15 03:00:27;;;;;;;9.98;2.20;;;;;;;;;;5129930;27;20126;-66
2022/09/15 03:02:54;;;;;;;10.02;2.40;;;;;;;;;;5149900;27;20062;-66
2022/09/15 03:05:21;;;;;;;16.15;2.53;;;;;;;;;;5139292;27;20524;-66
2022/09/15 03:07:48;;;;;;;13.15;2.42;;;;;;;;;;5128983;27;20043;-67
2022/09/15 03:10:17;;;;;;;13.98;2.63;;;;;;;;;;5138001;27;20047;-67
2022/09/15 03:12:43;;;;;;;;;;;;;;;;;;5148119;27;20042;-68
2022/09/15 03:15:10;;;;;;;10.65;2.83;;;;;;;;;;5149096;27;19926;-67
2022/09/15 03:17:37;;;;;;;15.60;2.90;;;;;;;;;;5147831;27;20083;-66
2022/09/15 03:20:04;;;;;;;15.65;3.10;;;;;;;;;;5149897;27;20065;-66
2022/09/15 03:22:31;;;;;;;10.38;2.50;;;;;;;;;;5148375;27;20039;-66
2022/09/15 03:24:57;;;;;;;16.15;3.20;;;;;;;;;;5149686;27;20047;-67
2022/09/15 03:27:23;;;;;;;18.60;3.15;;;;;;;;;;5122486;28;20096;-67
2022/09/15 03:29:50;;;;;;;;;;;;;;;;;;5129198;28;20511;-67
2022/09/15 03:32:16;;;;;;;13.30;2.95;;;;;;;;;;5131914;27;19919;-67
2022/09/15 03:34:43;;;;;;;17.10;2.75;;;;;;;;;;5152699;27;20069;-67
2022/09/15 03:37:09;;;;;;;17.17;2.80;;;;;;;;;;5151524;27;20110;-67
2022/09/15 03:39:35;;;;;;;15.35;2.85;;;;;;;;;;5132969;27;20261;-67
2022/09/15 03:42:01;;;;;;;18.00;3.05;;;;;;;;;;5132946;27;20083;-67
2022/09/15 03:44:27;;;;;;;8.85;2.33;;;;;;;;;;5139330;27;20035;-67
2022/09/15 03:46:53;;;;;;;;;;;;;;;;;;5133322;27;20102;-67
2022/09/15 03:49:19;;;;;;;14.13;2.85;;;;;;;;;;5145833;27;20002;-68
2022/09/15 03:51:45;;;;;;;15.02;2.95;;;;;;;;;;5142137;27;20205;-67
2022/09/15 03:54:11;;;;;;;16.95;3.15;;;;;;;;;;5132021;27;20046;-67
2022/09/15 03:56:38;;;;;;;11.88;2.40;;;;;;;;;;5133094;27;20130;-67
2022/09/15 03:59:04;;;;;;;;;;;;;;;;;;5152915;27;20447;-67
2022/09/15 04:01:30;;;;;;;14.07;2.78;;;;;;;;;;5146104;27;20370;-67
2022/09/15 04:03:57;;;;;;;13.75;2.40;;;;;;;;;;5152940;27;20034;-67
2022/09/15 04:06:23;;;;;;;13.32;2.65;;;;;;;;;;5133365;27;20463;-67
2022/09/15 04:08:50;;;;;;;12.82;2.80;;;;;;;;;;5137869;27;20035;-67
2022/09/15 04:11:17;;;;;;;14.82;2.90;;;;;;;;;;5131536;27;20047;-66
2022/09/15 04:13:44;;;;;;;14.07;2.70;;;;;;;;;;5147224;27;20050;-67
2022/09/15 04:16:12;;;;;;;12.95;2.58;;;;;;;;;;5133869;27;20118;-67
2022/09/15 04:18:38;;;;;;;16.25;3.35;;;;;;;;;;5134190;27;20061;-67
2022/09/15 04:21:04;;;;;;;;;;;;;;;;;;5140896;27;20081;-67
2022/09/15 04:23:30;;;;;;;10.73;2.95;;;;;;;;;;5149185;27;19925;-67
2022/09/15 04:25:57;;;;;;;13.95;2.65;;;;;;;;;;5132003;27;20142;-67
2022/09/15 04:28:24;;;;;;;17.98;3.35;;;;;;;;;;5131234;27;20119;-67
2022/09/15 04:30:51;;;;;;;15.93;3.33;;;;;;;;;;5150098;27;20195;-67
2022/09/15 04:33:17;;;;;;;19.05;3.03;;;;;;;;;;5118384;27;20075;-67
2022/09/15 04:35:43;;;;;;;16.27;3.00;;;;;;;;;;5131198;27;20126;-67
2022/09/15 04:38:10;;;;;;;17.35;3.10;;;;;;;;;;5113182;27;20058;-67
2022/09/15 04:40:37;;;;;;;;;;;;;;;;;;5132856;27;20051;-67
2022/09/15 04:43:03;;;;;;;16.38;3.13;;;;;;;;;;5136955;27;19922;-68
2022/09/15 04:45:29;;;;;;;15.88;3.40;;;;;;;;;;5151038;27;20068;-67
2022/09/15 04:47:56;;;;;;;16.30;3.40;;;;;;;;;;5139239;27;20047;-68
2022/09/15 04:50:22;;;;;;;16.25;3.20;;;;;;;;;;5130107;27;20355;-67
2022/09/15 04:52:48;;;;;;;14.52;2.75;;;;;;;;;;5150589;27;20372;-68
2022/09/15 04:55:14;;;;;;;14.30;3.25;;;;;;;;;;5131267;27;20054;-67
2022/09/15 04:57:40;;;;;;;12.80;2.83;;;;;;;;;;5148333;27;20047;-68
2022/09/15 05:00:06;;;;;;;12.23;2.63;;;;;;;;;;5149934;27;20047;-68
2022/09/15 05:02:32;;;;;;;;;;;;;;;;;;5132150;27;20106;-68
2022/09/15 05:04:58;;;;;;;11.80;2.42;;;;;;;;;;5145632;27;20057;-68
2022/09/15 05:07:25;;;;;;;13.27;2.60;;;;;;;;;;5150992;27;20042;-67
2022/09/15 05:09:52;;;;;;;9.25;2.25;;;;;;;;;;5133083;27;20050;-68
2022/09/15 05:12:18;;;;;;;16.90;3.00;;;;;;;;;;5150666;27;20054;-68
2022/09/15 05:14:44;;;;;;;13.65;2.65;;;;;;;;;;5147587;27;20057;-67
2022/09/15 05:17:10;;;;;;;13.73;2.72;;;;;;;;;;5149653;27;20042;-67
2022/09/15 05:19:36;;;;;;;12.02;2.75;;;;;;;;;;5151478;27;20047;-67
2022/09/15 05:22:02;;;;;;;13.75;2.70;;;;;;;;;;5147095;27;20078;-67
2022/09/15 05:24:28;;;;;;;10.68;2.40;;;;;;;;;;5149523;27;20082;-67
2022/09/15 05:26:54;;;;;;;13.40;3.20;;;;;;;;;;5150064;27;20043;-68
2022/09/15 05:29:20;;;;;;;13.10;2.45;;;;;;;;;;5149511;27;20058;-68
2022/09/15 05:31:46;;;;;;;13.45;2.38;;;;;;;;;;5147614;27;20066;-68
2022/09/15 05:34:12;;;;;;;12.43;2.72;;;;;;;;;;5150690;27;20047;-68
2022/09/15 05:36:38;;;;;;;12.88;2.80;;;;;;;;;;5150888;27;20054;-68
2022/09/15 05:39:04;;;;;;;11.40;2.70;;;;;;;;;;5151464;27;20167;-68
2022/09/15 05:41:30;;;;;;;12.77;2.60;;;;;;;;;;5149070;27;20050;-69
2022/09/15 05:43:57;;;;;;;12.23;2.53;;;;;;;;;;5148208;27;20042;-68
2022/09/15 05:46:27;;;;;;;12.23;2.63;;;;;;;;;;5151044;27;20077;-67
2022/09/15 05:48:55;;;;;;;12.80;2.42;;;;;;;;;;5148829;27;20550;-68
2022/09/15 05:51:21;;;;;;;11.90;2.60;;;;;;;;;;5128500;27;20382;-68
2022/09/15 05:53:47;;;;;;;9.50;2.45;;;;;;;;;;5128792;27;20141;-68
2022/09/15 05:56:14;;;;;;;11.15;2.40;;;;;;;;;;5143227;27;20046;-82
2022/09/15 05:58:41;;;;;;;11.70;2.50;;;;;;;;;;5134904;27;20047;-71
2022/09/15 06:01:08;;;;;;;13.63;2.72;;;;;;;;;;5135956;27;20051;-73
2022/09/15 06:03:35;;;;;;;12.13;2.78;;;;;;;;;;5143464;27;20050;-70
2022/09/15 06:06:02;;;;;;;11.68;2.85;;;;;;;;;;5148718;27;20058;-69
2022/09/15 06:08:32;;;;;;;12.32;2.60;;;;;;;;;;5140768;27;20366;-70
2022/09/15 06:11:21;;;;;;;13.48;2.50;;;;;;;;;;5141440;27;20074;-71
2022/09/15 06:13:48;;;;;;;15.75;3.67;;;;;;;;;;5106388;27;20344;-69
2022/09/15 06:16:21;;;;;;;12.48;2.70;;;;;;;;;;5144474;27;20427;-67
2022/09/15 06:18:48;;;;;;;12.85;2.75;;;;;;;;;;5145817;27;20042;-68
2022/09/15 06:21:16;;;;;;;12.85;2.92;;;;;;;;;;5138716;27;20061;-69
2022/09/15 06:23:42;;;;;;;14.60;2.30;;;;;;;;;;5139803;27;20069;-68
2022/09/15 06:26:18;;;;;;;14.80;2.50;;;;;;;;;;5142012;27;20042;-68
2022/09/15 06:28:51;;;;;;;13.75;2.63;;;;;;;;;;5113829;27;20066;-69
2022/09/15 06:31:17;;;;;;;20.08;4.65;;;;;;;;;;5144109;27;20051;-68
2022/09/15 06:33:45;;;;;;;11.38;3.25;;;;;;;;;;5136080;27;20066;-68
2022/09/15 06:36:12;;;;;;;11.93;2.85;;;;;;;;;;5136492;27;20058;-68
2022/09/15 06:38:42;;;;;;;12.57;2.47;;;;;;;;;;5143095;27;20046;-68
2022/09/15 06:41:09;;;;;;;11.57;2.22;;;;;;;;;;5144681;27;20043;-69
2022/09/15 06:43:35;;;;;;;12.43;2.30;;;;;;;;;;5136684;27;20051;-67
2022/09/15 06:46:02;;;;;;;;;;;;;;;;;;5138176;27;20053;-68
2022/09/15 06:48:29;;;;;;;11.50;2.50;;;;;;;;;;5143453;27;19932;-69
2022/09/15 06:50:55;;;;;;;;;;;;;;;;;;5132085;27;20043;-69
2022/09/15 06:53:21;;;;;;;9.15;2.17;;;;;;;;;;5143450;27;20018;-68
2022/09/15 06:55:47;;;;;;;10.20;2.15;;;;;;;;;;5129438;27;20108;-68
2022/09/15 06:58:13;;;;;;;9.32;2.13;;;;;;;;;;5140956;27;20038;-68
2022/09/15 07:00:39;;;;;;;13.05;2.72;;;;;;;;;;5147966;27;20043;-68
2022/09/15 07:03:06;;;;;;;11.68;2.15;;;;;;;;;;5113737;27;20422;-70
2022/09/15 07:05:32;;;;;;;;;;;;;;;;;;5141281;27;20114;-67
2022/09/15 07:07:58;;;;;;;13.05;2.30;;;;;;;;;;5144031;27;19958;-68
2022/09/15 07:10:24;;;;;;;13.27;2.45;;;;;;;;;;5143920;27;20151;-72
2022/09/15 07:12:50;;;;;;;8.20;1.88;;;;;;;;;;5152345;27;20493;-67
2022/09/15 07:15:16;;;;;;;10.60;2.25;;;;;;;;;;5153133;27;20050;-68
2022/09/15 07:17:42;;;;;;;6.40;1.80;;;;;;;;;;5153455;27;20065;-72
2022/09/15 07:20:08;;;;;;;6.22;1.80;;;;;;;;;;5151288;27;20034;-70
2022/09/15 07:22:34;;;;;;;;;;;;;;;;;;5153573;27;20439;-67
2022/09/15 07:25:00;;;;;;;7.40;1.95;;;;;;;;;;5153763;27;19930;-69
2022/09/15 07:27:30;;;;;;;10.15;2.20;;;;;;;;;;5153913;27;20109;-70
2022/09/15 07:29:57;;;;;;;10.85;1.92;;;;;;;;;;5151644;27;20900;-68
2022/09/15 07:32:23;;;;;;;7.93;1.80;;;;;;;;;;5153039;27;20058;-68
2022/09/15 07:34:50;;;;;;;12.80;2.92;;;;;;;;;;5152981;27;20130;-72
2022/09/15 07:37:16;;;;;;;13.07;2.25;;;;;;;;;;5153518;27;20122;-69
2022/09/15 07:39:42;;;;;;;14.02;2.38;;;;;;;;;;5152352;27;20407;-70
2022/09/15 07:42:08;;;;;;;16.08;2.80;;;;;;;;;;5151997;27;20074;-70
2022/09/15 07:44:34;;;;;;;15.48;2.38;;;;;;;;;;5151745;27;20047;-69
2022/09/15 07:47:01;;;;;;;13.77;2.30;;;;;;;;;;5133627;27;20047;-71
2022/09/15 07:49:27;;;;;;;10.57;2.40;;;;;;;;;;5152649;27;20074;-67
2022/09/15 07:51:53;;;;;;;;;;;;;;;;;;5151146;27;20057;-65
2022/09/15 07:54:19;;;;;;;10.48;2.50;;;;;;;;;;5151205;27;19930;-65
2022/09/15 07:56:45;;;;;;;9.68;2.17;;;;;;;;;;5132979;27;20057;-65
2022/09/15 07:59:12;;;;;;;13.32;2.70;;;;;;;;;;5152038;27;20046;-65
2022/09/15 08:01:39;;;;;;;10.43;2.40;;;;;;;;;;5151697;27;20083;-65
2022/09/15 08:04:05;;;;;;;;;;;;;;;;;;5133775;27;20051;-65
2022/09/15 08:06:31;;;;;;;12.73;2.50;;;;;;;;;;5152083;27;19923;-66
2022/09/15 08:08:57;;;;;;;11.35;2.53;;;;;;;;;;5151395;27;20361;-67
2022/09/15 08:11:24;;;;;;;18.00;3.42;;;;;;;;;;5152063;27;20092;-66
2022/09/15 08:13:51;;;;;;;12.15;2.83;;;;;;;;;;5150155;27;20042;-65
2022/09/15 08:16:21;;;;;;;16.15;2.85;;;;;;;;;;5133561;27;20424;-70
2022/09/15 08:18:48;;;;;;;12.60;2.50;;;;;;;;;;5151897;27;20175;-68
2022/09/15 08:21:15;;;;;;;11.70;2.67;;;;;;;;;;5133282;27;20127;-66
2022/09/15 08:23:42;;;;;;;14.60;3.33;;;;;;;;;;5146378;27;20058;-66
2022/09/15 08:26:09;;;;;;;14.45;2.70;;;;;;;;;;5132974;27;20046;-68
2022/09/15 08:28:36;;;;;;;12.68;2.67;;;;;;;;;;5151636;27;20226;-68
2022/09/15 08:31:03;;;;;;;8.60;2.20;;;;;;;;;;5150846;27;20097;-67
2022/09/15 08:33:30;;;;;;;13.07;2.40;;;;;;;;;;5149308;27;20074;-69
2022/09/15 08:35:56;;;;;;;;;;;;;;;;;;5151567;27;20124;-74
2022/09/15 08:38:25;;;;;;;11.57;2.50;;;;;;;;;;5151771;27;20373;-67
2022/09/15 08:40:56;;;;;;;13.13;2.60;;;;;;;;;;5150569;27;20435;-66
2022/09/15 08:43:24;;;;;;;11.23;2.40;;;;;;;;;;5130157;27;20125;-67
2022/09/15 08:46:00;;;;;;;13.13;2.53;;;;;;;;;;5148894;27;20083;-66
2022/09/15 08:48:29;;;;;;;14.25;2.60;;;;;;;;;;5132415;27;20050;-70
2022/09/15 08:50:57;;;;;;;14.55;2.60;;;;;;;;;;5150889;27;20137;-71
2022/09/15 08:53:35;;;;;;;13.70;2.58;;;;;;;;;;5151124;27;20103;-68
2022/09/15 08:56:03;;;;;;;11.65;2.97;;;;;;;;;;5149489;27;21536;-66
2022/09/15 08:58:30;;;;;;;14.77;3.22;;;;;;;;;;5113459;27;20039;-71
2022/09/15 09:01:02;;;;;;;13.35;2.35;;;;;;;;;;5149409;27;20458;-72
2022/09/15 09:03:38;;;;;;;14.82;2.70;;;;;;;;;;5150100;27;20081;-83
2022/09/15 09:06:13;;;;;;;14.00;3.05;;;;;;;;;;5150806;27;20099;-66
2022/09/15 09:08:51;;;;;;;16.15;3.55;;;;;;;;;;5150991;27;20051;-68
2022/09/15 09:11:37;;;;;;;16.02;2.78;;;;;;;;;;5149679;27;20115;-66
2022/09/15 09:14:32;;;;;;;13.05;2.97;;;;;;;;;;5142681;27;20046;-68
2022/09/15 09:17:17;;;;;;;14.98;2.80;;;;;;;;;;5140913;27;20046;-67
2022/09/15 09:19:46;;;;;;;17.95;3.40;;;;;;;;;;5150638;27;20086;-68
2022/09/15 09:22:15;;;;;;;18.27;3.42;;;;;;;;;;5129763;27;20039;-68
2022/09/15 09:24:43;;;;;;;14.13;2.70;;;;;;;;;;5150644;27;20035;-69
2022/09/15 09:27:12;;;;;;;14.48;3.28;;;;;;;;;;5150143;27;20069;-69
2022/09/15 09:29:40;;;;;;;18.20;3.10;;;;;;;;;;5150013;27;20058;-68
2022/09/15 09:32:13;;;;;;;17.40;3.17;;;;;;;;;;5148576;27;20063;-69
2022/09/15 09:34:45;;;;;;;15.68;3.88;;;;;;;;;;5150592;27;20050;-68
2022/09/15 09:37:17;;;;;;;14.98;3.17;;;;;;;;;;5149951;27;20068;-68
2022/09/15 09:39:45;;;;;;;16.88;3.55;;;;;;;;;;5150399;27;20486;-69
2022/09/15 09:42:17;;;;;;;16.58;3.25;;;;;;;;;;5148862;27;20058;-70
2022/09/15 09:44:43;;;;;;;12.45;2.67;;;;;;;;;;5150500;27;20085;-72
2022/09/15 09:47:11;;;;;;;10.55;2.67;;;;;;;;;;5133014;27;20051;-73
2022/09/15 09:49:40;;;;;;;11.18;2.35;;;;;;;;;;5109832;27;20333;-69
2022/09/15 09:52:06;;;;;;;9.45;2.40;;;;;;;;;;5146064;27;20130;-71
2022/09/15 09:54:34;;;;;;;10.75;2.60;;;;;;;;;;5134161;27;20094;-67
2022/09/15 09:57:12;;;;;;;8.43;2.17;;;;;;;;;;5143982;27;20087;-71
2022/09/15 09:59:39;;;;;;;10.73;2.60;;;;;;;;;;5128590;27;20461;-69
2022/09/15 10:02:12;;;;;;;11.93;2.47;;;;;;;;;;5133701;27;20446;-71
2022/09/15 10:04:38;;;;;;;8.85;2.30;;;;;;;;;;5137227;27;20494;-78
2022/09/15 10:07:05;;;;;;;10.38;2.47;;;;;;;;;;5143798;27;20043;-69
2022/09/15 10:09:31;;;;;;;15.98;2.65;;;;;;;;;;5137645;27;20456;-69
2022/09/15 10:12:02;;;;;;;11.00;2.53;;;;;;;;;;5142092;27;20054;-65
2022/09/15 10:14:39;;;;;;;12.70;2.70;;;;;;;;;;5117235;27;20046;-64
2022/09/15 10:17:09;;;;;;;13.48;2.92;;;;;;;;;;5145810;27;20053;-68
2022/09/15 10:19:42;;;;;;;15.48;3.10;;;;;;;;;;5143808;27;20057;-70
2022/09/15 10:22:08;;;;;;;13.63;2.92;;;;;;;;;;5136574;27;20572;-68
2022/09/15 10:24:45;;;;;;;14.20;2.83;;;;;;;;;;5137726;27;20149;-78
2022/09/15 10:27:19;;;;;;;13.25;2.60;;;;;;;;;;5146229;27;20055;-69
2022/09/15 10:29:45;;;;;;;10.32;2.72;;;;;;;;;;5128307;27;20494;-68
2022/09/15 10:32:27;;;;;;;10.02;2.70;;;;;;;;;;5140193;27;20079;-66
2022/09/15 10:35:10;;;;;;;10.02;2.42;;;;;;;;;;5149100;27;20050;-69
2022/09/15 10:37:39;;;;;;;8.55;2.30;;;;;;;;;;5148244;27;20050;-67
2022/09/15 10:40:28;;;;;;;14.15;2.50;;;;;;;;;;5129274;27;20081;-67
2022/09/15 10:42:58;;;;;;;11.63;2.50;;;;;;;;;;5108351;27;20121;-69
2022/09/15 10:45:37;;;;;;;11.40;2.55;;;;;;;;;;5142464;27;20393;-74
2022/09/15 10:48:13;;;;;;;9.98;2.35;;;;;;;;;;5125617;27;20050;-75
2022/09/15 10:50:48;;;;;;;9.05;2.55;;;;;;;;;;5124989;27;20061;-75
2022/09/15 10:53:33;;;;;;;9.93;2.25;;;;;;;;;;5117781;27;20042;-71
2022/09/15 10:56:18;;;;;;;11.73;2.40;;;;;;;;;;5109401;28;20126;-72
2022/09/15 10:58:44;;;;;;;13.52;2.00;;;;;;;;;;5142647;27;20112;-73
2022/09/15 11:01:28;;;;;;;6.75;1.98;;;;;;;;;;5123710;27;20478;-72
2022/09/15 11:03:59;;;;;;;6.20;1.77;;;;;;;;;;5133995;27;20377;-75
2022/09/15 11:06:44;;;;;;;6.03;1.80;;;;;;;;;;5130216;27;20514;-71
2022/09/15 11:09:29;;;;;;;8.07;2.00;;;;;;;;;;5129544;27;20043;-72
2022/09/15 11:11:58;;;;;;;6.63;1.70;;;;;;;;;;5128104;27;20187;-73
2022/09/15 11:14:40;;;;;;;8.60;1.98;;;;;;;;;;5138071;27;20046;-75
2022/09/15 11:17:09;;;;;;;8.52;1.95;;;;;;;;;;5136189;27;20050;-74
2022/09/15 11:19:55;;;;;;;12.45;2.40;;;;;;;;;;5142826;27;20054;-79
2022/09/15 11:22:27;;;;;;;14.95;2.60;;;;;;;;;;5116582;27;20038;-75
2022/09/15 11:24:58;;;;;;;10.38;2.30;;;;;;;;;;5147718;27;20047;-75
2022/09/15 11:27:35;;;;;;;12.43;2.75;;;;;;;;;;5140126;27;20479;-75
2022/09/15 11:30:04;;;;;;;9.63;2.45;;;;;;;;;;5139962;27;20351;-75
2022/09/15 11:32:56;;;;;;;11.07;2.13;;;;;;;;;;5146314;27;20171;-78
2022/09/15 11:35:34;;;;;;;9.77;2.45;;;;;;;;;;5123977;28;20073;-71
2022/09/15 11:38:05;;;;;;;11.93;2.75;;;;;;;;;;5127567;28;20112;-74
2022/09/15 11:40:34;;;;;;;12.63;2.70;;;;;;;;;;5138420;27;20078;-77
2022/09/15 11:43:03;;;;;;;10.45;2.50;;;;;;;;;;5145807;27;20111;-77
2022/09/15 11:45:38;;;;;;;9.63;2.10;;;;;;;;;;5147857;27;20195;-69
2022/09/15 11:48:15;;;;;;;7.85;2.10;;;;;;;;;;5148640;27;20097;-77
2022/09/15 11:50:44;;;;;;;12.15;2.25;;;;;;;;;;5147581;27;20042;-72
2022/09/15 11:53:19;;;;;;;11.40;2.40;;;;;;;;;;5132208;27;20100;-81
2022/09/15 11:55:48;;;;;;;12.65;2.20;;;;;;;;;;5152471;27;20087;-72
2022/09/15 11:58:17;;;;;;;12.95;2.20;;;;;;;;;;5151996;27;20160;-69
2022/09/15 12:00:59;;;;;;;12.70;2.08;;;;;;;;;;5150374;27;20054;-71
2022/09/15 12:03:44;;;;;;;8.77;2.15;;;;;;;;;;5151303;27;20141;-69
2022/09/15 12:06:15;;;;;;;12.55;2.22;;;;;;;;;;5151497;27;20126;-66
2022/09/15 12:08:52;;;;;;;11.20;2.17;;;;;;;;;;5152102;27;20069;-68
2022/09/15 12:11:23;;;;;;;5.95;1.92;;;;;;;;;;5130815;27;20462;-79
2022/09/15 12:13:50;;;;;;;11.80;2.25;;;;;;;;;;5112289;27;20063;-68
2022/09/15 12:16:16;;;;;;;7.95;1.80;;;;;;;;;;5150791;27;20367;-70
2022/09/15 12:18:49;;;;;;;8.77;1.88;;;;;;;;;;5152234;27;20039;-79
2022/09/15 12:21:22;;;;;;;8.32;2.10;;;;;;;;;;5132932;27;20042;-75
2022/09/15 12:23:57;;;;;;;11.10;2.90;;;;;;;;;;5151918;27;20135;-72
2022/09/15 12:26:24;;;;;;;13.27;2.15;;;;;;;;;;5151426;27;20042;-68
2022/09/15 12:28:52;;;;;;;9.40;2.10;;;;;;;;;;5151855;27;20046;-69
2022/09/15 12:31:25;;;;;;;13.23;3.28;;;;;;;;;;5131991;27;20055;-70
2022/09/15 12:33:51;;;;;;;9.77;2.30;;;;;;;;;;5150479;27;20046;-75
2022/09/15 12:36:37;;;;;;;10.40;2.20;;;;;;;;;;5132761;27;20125;-69
2022/09/15 12:39:05;;;;;;;16.38;2.67;;;;;;;;;;5151800;27;20121;-67
2022/09/15 12:41:31;;;;;;;14.23;2.70;;;;;;;;;;5151241;27;20146;-69
2022/09/15 12:44:00;;;;;;;12.10;2.30;;;;;;;;;;5150456;27;20050;-70
2022/09/15 12:46:26;;;;;;;11.90;2.38;;;;;;;;;;5150651;27;20522;-73
2022/09/15 12:48:56;;;;;;;12.05;2.28;;;;;;;;;;5133189;27;20053;-69
2022/09/15 12:51:24;;;;;;;17.52;2.35;;;;;;;;;;5151329;27;20115;-77
2022/09/15 12:54:03;;;;;;;11.35;2.40;;;;;;;;;;5150244;27;20162;-69
2022/09/15 12:56:31;;;;;;;9.23;2.30;;;;;;;;;;5150977;27;20078;-69
2022/09/15 12:59:03;;;;;;;12.90;2.50;;;;;;;;;;5151273;27;20489;-69
2022/09/15 13:01:31;;;;;;;13.38;2.47;;;;;;;;;;5151432;27;20453;-72
2022/09/15 13:03:57;;;;;;;11.15;2.38;;;;;;;;;;5151051;27;20046;-73
2022/09/15 13:06:23;;;;;;;10.60;2.40;;;;;;;;;;5150876;27;20051;-68
2022/09/15 13:09:04;;;;;;;11.35;2.58;;;;;;;;;;5151238;27;20110;-69
2022/09/15 13:11:35;;;;;;;8.20;1.92;;;;;;;;;;5150837;27;20431;-69
2022/09/15 13:14:07;;;;;;;8.32;2.00;;;;;;;;;;5150094;27;20046;-74
2022/09/15 13:16:39;;;;;;;9.65;2.25;;;;;;;;;;5132116;27;20362;-71
2022/09/15 13:19:15;;;;;;;9.68;2.08;;;;;;;;;;5151160;27;20498;-72
2022/09/15 13:21:42;;;;;;;12.23;2.92;;;;;;;;;;5148135;27;20466;-69
2022/09/15 13:24:15;;;;;;;11.18;2.50;;;;;;;;;;5149421;27;20039;-68
2022/09/15 13:26:43;;;;;;;10.40;2.17;;;;;;;;;;5150764;27;20128;-75
2022/09/15 13:29:12;;;;;;;11.32;2.30;;;;;;;;;;5150580;27;20125;-73
2022/09/15 13:31:47;;;;;;;11.77;2.47;;;;;;;;;;5150115;27;20130;-81
2022/09/15 13:34:32;;;;;;;9.45;2.35;;;;;;;;;;5130488;27;20356;-68
2022/09/15 13:36:59;;;;;;;8.77;2.05;;;;;;;;;;5129992;27;20060;-76
2022/09/15 13:40:00;;;;;;;9.70;1.98;;;;;;;;;;5129516;27;20130;-73
2022/09/15 13:42:38;;;;;;;9.07;1.90;;;;;;;;;;5086038;28;20052;-71
2022/09/15 13:45:07;;;;;;;9.07;2.00;;;;;;;;;;5126576;27;20142;-69
2022/09/15 13:47:48;;;;;;;8.70;1.83;;;;;;;;;;5150118;27;20039;-77
2022/09/15 13:50:22;;;;;;;8.80;1.83;;;;;;;;;;5150381;27;20126;-69
2022/09/15 13:53:07;;;;;;;7.20;1.85;;;;;;;;;;5150501;27;20102;-75
2022/09/15 13:55:41;;;;;;;5.80;1.70;;;;;;;;;;5148687;27;20064;-73
2022/09/15 13:58:11;;;;;;;8.27;2.13;;;;;;;;;;5110952;27;20068;-83
2022/09/15 14:01:01;;;;;;;9.60;2.35;;;;;;;;;;5129743;27;20149;-71
2022/09/15 14:03:35;;;;;;;11.80;2.20;;;;;;;;;;5105229;27;20504;-74
2022/09/15 14:06:01;;;;;;;9.95;2.20;;;;;;;;;;5129612;27;20122;-81
2022/09/15 14:08:31;;;;;;;8.25;2.10;;;;;;;;;;5130813;27;20439;-68
2022/09/15 14:11:02;;;;;;;10.95;2.15;;;;;;;;;;5149896;27;20051;-69
2022/09/15 14:13:29;;;;;;;11.18;2.20;;;;;;;;;;5149623;27;20061;-71
2022/09/15 14:16:00;;;;;;;9.20;2.50;;;;;;;;;;5147999;27;20102;-73
2022/09/15 14:18:26;;;;;;;10.18;2.20;;;;;;;;;;5130653;27;20069;-70
2022/09/15 14:20:59;;;;;;;10.13;2.22;;;;;;;;;;5149803;27;20469;-76
2022/09/15 14:23:26;;;;;;;9.35;2.13;;;;;;;;;;5147998;27;20078;-68
2022/09/15 14:25:52;;;;;;;;;;;;;;;;;;5148865;27;20118;-71
2022/09/15 14:28:24;;;;;;;8.20;2.00;;;;;;;;;;5131207;27;20354;-71
2022/09/15 14:30:50;;;;;;;10.90;2.03;;;;;;;;;;5148438;27;20039;-71
2022/09/15 14:33:17;;;;;;;9.65;2.15;;;;;;;;;;5130771;27;20190;-70
2022/09/15 14:35:43;;;;;;;7.93;2.10;;;;;;;;;;5148875;27;20078;-73
2022/09/15 14:38:09;;;;;;;;;;;;;;;;;;5131306;27;20126;-76
2022/09/15 14:40:38;;;;;;;10.48;2.15;;;;;;;;;;5147852;27;19963;-71
2022/09/15 14:43:43;;;;;;;10.13;2.08;;;;;;;;;;5148016;27;20043;-72
2022/09/15 14:46:10;;;;;;;10.00;1.98;;;;;;;;;;5045518;28;20170;-71
2022/09/15 14:48:37;;;;;;;8.00;1.83;;;;;;;;;;5044448;28;20057;-71
2022/09/15 14:51:21;;;;;;;11.02;2.55;;;;;;;;;;5093785;27;20047;-70
2022/09/15 14:53:49;;;;;;;11.45;2.40;;;;;;;;;;5148759;27;20156;-74
2022/09/15 14:56:18;;;;;;;9.93;2.25;;;;;;;;;;5148055;27;20046;-78